RJCT(METAR)
02/18 15:00
METAR RJCT 180600Z 32007KT 9999 FEW050 01/M08 Q1017 RMK 2CU050
A3004=
戻る
トップページへ戻る
IMOC Co,.Ltd.